createdAt,value
2019-05-30T00:00:26.954Z,51.04
2019-05-30T00:02:56.687Z,50.86
2019-05-30T00:05:25.138Z,50.87
2019-05-30T00:07:54.210Z,51.11
2019-05-30T00:10:22.313Z,51.15
2019-05-30T00:12:50.403Z,51.23
2019-05-30T00:15:18.656Z,51.14
2019-05-30T00:17:46.668Z,51.16
2019-05-30T00:20:14.967Z,51.03
2019-05-30T00:22:42.969Z,51.07
2019-05-30T00:25:10.975Z,51.27
2019-05-30T00:27:39.019Z,51.22
2019-05-30T00:30:23.057Z,51.45
2019-05-30T00:32:36.800Z,51.08
2019-05-30T00:35:05.916Z,51.39
2019-05-30T00:37:34.099Z,51.97
2019-05-30T00:40:02.351Z,51.85
2019-05-30T00:42:30.394Z,51.63
2019-05-30T00:44:58.519Z,52.10
2019-05-30T00:47:26.537Z,52.42
2019-05-30T00:49:54.630Z,52.49
2019-05-30T00:52:22.679Z,52.79
2019-05-30T00:54:52.044Z,52.34
2019-05-30T00:57:20.104Z,52.18
2019-05-30T00:59:48.121Z,52.18
2019-05-30T01:02:16.232Z,52.29
2019-05-30T01:04:44.373Z,52.41
2019-05-30T01:07:12.413Z,51.97
2019-05-30T01:09:40.610Z,52.30
2019-05-30T01:12:08.752Z,52.12
2019-05-30T01:14:36.944Z,52.46
2019-05-30T01:17:05.418Z,52.41
2019-05-30T01:19:34.683Z,52.63
2019-05-30T01:22:03.412Z,52.54
2019-05-30T01:24:31.659Z,52.75
2019-05-30T01:27:01.349Z,52.75
2019-05-30T01:29:29.653Z,52.46
2019-05-30T01:31:57.747Z,52.62
2019-05-30T01:34:25.858Z,52.82
2019-05-30T01:36:53.878Z,52.65
2019-05-30T01:39:21.971Z,52.65
2019-05-30T01:41:50.007Z,52.75
2019-05-30T01:44:18.054Z,53.16
2019-05-30T01:46:46.145Z,53.10
2019-05-30T01:49:14.195Z,53.17
2019-05-30T01:51:42.252Z,53.16
2019-05-30T01:54:10.341Z,53.32
2019-05-30T01:56:38.396Z,53.42
2019-05-30T01:59:06.782Z,53.44
2019-05-30T02:01:35.078Z,53.27
2019-05-30T02:04:03.370Z,53.14
2019-05-30T02:06:31.954Z,53.42
2019-05-30T02:09:00.907Z,53.13
2019-05-30T02:11:29.324Z,53.75
2019-05-30T02:13:57.392Z,53.43
2019-05-30T02:16:25.790Z,53.53
2019-05-30T02:18:53.795Z,53.52
2019-05-30T02:21:21.845Z,54.02
2019-05-30T02:23:49.865Z,53.57
2019-05-30T02:26:17.920Z,53.48
2019-05-30T02:28:46.018Z,53.57
2019-05-30T02:31:14.473Z,53.78
2019-05-30T02:33:42.712Z,53.71
2019-05-30T02:36:12.495Z,53.62
2019-05-30T02:38:40.488Z,53.38
2019-05-30T02:41:10.059Z,53.53
2019-05-30T02:43:38.420Z,53.09
2019-05-30T02:46:08.043Z,53.14
2019-05-30T02:48:54.763Z,52.96
2019-05-30T02:51:07.773Z,53.24
2019-05-30T02:53:35.839Z,53.09
2019-05-30T02:56:05.870Z,53.51
2019-05-30T02:58:33.686Z,53.10
2019-05-30T03:01:02.320Z,53.13
2019-05-30T03:03:31.709Z,53.47
2019-05-30T03:06:01.861Z,53.11
2019-05-30T03:08:29.992Z,53.13
2019-05-30T03:10:58.044Z,53.34
2019-05-30T03:13:26.239Z,53.52
2019-05-30T03:15:54.259Z,53.39
2019-05-30T03:18:22.379Z,53.15
2019-05-30T03:20:50.417Z,53.62
2019-05-30T03:23:18.544Z,53.51
2019-05-30T03:25:46.597Z,53.42
2019-05-30T03:28:14.676Z,53.67
2019-05-30T03:30:42.707Z,53.58
2019-05-30T03:33:34.774Z,53.72
2019-05-30T03:35:43.127Z,54.09
2019-05-30T03:38:12.773Z,54.00
2019-05-30T03:40:40.091Z,54.10
2019-05-30T03:43:09.190Z,54.32
2019-05-30T03:45:37.864Z,54.38
2019-05-30T03:48:06.733Z,54.22
2019-05-30T03:50:35.680Z,54.21
2019-05-30T03:53:04.564Z,54.13
2019-05-30T03:55:33.356Z,54.49
2019-05-30T03:58:01.390Z,54.25
2019-05-30T04:00:29.431Z,54.36
2019-05-30T04:02:59.055Z,54.60
2019-05-30T04:05:27.191Z,54.63
2019-05-30T04:07:55.299Z,54.67
2019-05-30T04:10:23.298Z,54.42
2019-05-30T04:12:51.354Z,54.11
2019-05-30T04:15:19.776Z,53.97
2019-05-30T04:17:48.579Z,53.97
2019-05-30T04:20:21.219Z,54.12
2019-05-30T04:22:48.665Z,54.15
2019-05-30T04:25:20.461Z,53.98
2019-05-30T04:27:48.534Z,54.03
2019-05-30T04:30:18.523Z,54.00
2019-05-30T04:32:46.708Z,54.35
2019-05-30T04:35:16.206Z,54.16
2019-05-30T04:37:44.568Z,54.09
2019-05-30T04:40:13.430Z,53.85
2019-05-30T04:42:42.392Z,54.15
2019-05-30T04:45:11.751Z,54.75
2019-05-30T04:47:40.326Z,54.24
2019-05-30T04:50:09.988Z,54.22
2019-05-30T04:52:38.413Z,53.84
2019-05-30T04:55:06.446Z,54.38
2019-05-30T04:57:34.671Z,54.44
2019-05-30T05:00:02.709Z,54.47
2019-05-30T05:02:30.729Z,55.25
2019-05-30T05:04:58.775Z,55.29
2019-05-30T05:07:27.046Z,55.26
2019-05-30T05:09:55.100Z,55.27
2019-05-30T05:12:23.221Z,55.70
2019-05-30T05:14:51.684Z,55.47
2019-05-30T05:17:20.940Z,55.75
2019-05-30T05:19:49.080Z,55.62
2019-05-30T05:22:17.140Z,55.92
2019-05-30T05:24:45.176Z,55.98
2019-05-30T05:27:13.552Z,55.97
2019-05-30T05:29:41.793Z,55.95
2019-05-30T05:32:10.126Z,56.14
2019-05-30T05:34:38.346Z,56.01
2019-05-30T05:37:06.429Z,56.20
2019-05-30T05:39:34.449Z,56.30
2019-05-30T05:42:02.488Z,56.31
2019-05-30T05:44:30.823Z,56.17
2019-05-30T05:46:58.864Z,56.25
2019-05-30T05:49:26.943Z,56.68
2019-05-30T05:51:55.004Z,56.40
2019-05-30T05:54:23.198Z,56.66
2019-05-30T05:56:51.309Z,56.66
2019-05-30T05:59:20.977Z,56.63
2019-05-30T06:01:49.136Z,56.78
2019-05-30T06:04:17.274Z,56.81
2019-05-30T06:06:45.284Z,56.81
2019-05-30T06:09:13.426Z,56.79
2019-05-30T06:11:41.499Z,57.01
2019-05-30T06:14:09.563Z,56.72
2019-05-30T06:16:37.639Z,56.70
2019-05-30T06:19:06.631Z,56.80
2019-05-30T06:21:34.667Z,56.98
2019-05-30T06:24:02.726Z,57.14
2019-05-30T06:26:30.741Z,57.10
2019-05-30T06:28:58.786Z,56.85
2019-05-30T06:31:26.878Z,57.34
2019-05-30T06:33:54.941Z,57.23
2019-05-30T06:36:23.192Z,57.23
2019-05-30T06:38:51.608Z,57.41
2019-05-30T06:41:19.610Z,57.20
2019-05-30T06:43:47.767Z,57.36
2019-05-30T06:46:15.796Z,57.24
2019-05-30T06:48:43.836Z,57.18
2019-05-30T06:51:14.499Z,56.29
2019-05-30T06:53:41.669Z,55.76
2019-05-30T06:56:09.764Z,55.93
2019-05-30T06:58:48.022Z,55.76
2019-05-30T07:01:07.691Z,56.09
2019-05-30T07:03:35.691Z,55.98
2019-05-30T07:06:04.328Z,55.77
2019-05-30T07:08:33.044Z,55.74
2019-05-30T07:11:01.233Z,56.04
2019-05-30T07:13:29.329Z,56.66
2019-05-30T07:15:57.386Z,56.69
2019-05-30T07:18:25.469Z,57.37
2019-05-30T07:20:53.494Z,57.12
2019-05-30T07:23:21.559Z,56.96
2019-05-30T07:25:49.610Z,56.68
2019-05-30T07:28:17.621Z,56.73
2019-05-30T07:30:45.682Z,57.00
2019-05-30T07:33:13.651Z,56.86
2019-05-30T07:35:41.658Z,56.64
2019-05-30T07:38:09.744Z,56.86
2019-05-30T07:40:37.810Z,56.74
2019-05-30T07:43:05.870Z,57.01
2019-05-30T07:45:35.096Z,56.90
2019-05-30T07:48:03.268Z,56.87
2019-05-30T07:50:32.481Z,56.60
2019-05-30T07:53:00.951Z,56.73
2019-05-30T07:55:29.001Z,57.01
2019-05-30T07:57:57.003Z,57.23
2019-05-30T08:00:25.083Z,56.87
2019-05-30T08:02:53.136Z,57.37
2019-05-30T08:05:24.527Z,57.70
2019-05-30T08:08:09.920Z,57.83
2019-05-30T08:10:38.262Z,58.18
2019-05-30T08:13:06.692Z,58.13
2019-05-30T08:15:37.016Z,58.19
2019-05-30T08:18:04.529Z,58.05
2019-05-30T08:20:33.821Z,57.65
2019-05-30T08:23:02.285Z,57.79
2019-05-30T08:25:30.640Z,58.18
2019-05-30T08:27:58.832Z,57.99
2019-05-30T08:30:28.313Z,57.88
2019-05-30T08:32:56.553Z,58.08
2019-05-30T08:35:39.080Z,58.12
2019-05-30T08:37:54.600Z,57.97
2019-05-30T08:40:22.703Z,58.08
2019-05-30T08:42:50.799Z,58.07
2019-05-30T08:45:18.893Z,58.05
2019-05-30T08:47:47.043Z,58.12
2019-05-30T08:50:15.174Z,58.02
2019-05-30T08:52:43.537Z,58.17
2019-05-30T08:55:12.586Z,58.00
2019-05-30T08:57:41.137Z,58.08
2019-05-30T09:00:09.629Z,58.14
2019-05-30T09:02:38.823Z,58.32
2019-05-30T09:05:07.304Z,58.13
2019-05-30T09:07:36.418Z,57.94
2019-05-30T09:10:04.613Z,57.98
2019-05-30T09:12:32.664Z,58.12
2019-05-30T09:15:01.787Z,58.24
2019-05-30T09:17:30.070Z,58.28
2019-05-30T09:19:58.080Z,58.27
2019-05-30T09:22:26.410Z,58.10
2019-05-30T09:24:54.872Z,57.92
2019-05-30T09:27:22.931Z,58.03
2019-05-30T09:29:50.993Z,57.98
2019-05-30T09:32:18.975Z,58.10
2019-05-30T09:34:47.093Z,57.81
2019-05-30T09:37:15.193Z,57.87
2019-05-30T09:39:43.455Z,57.78
2019-05-30T09:42:11.546Z,57.14
2019-05-30T09:44:40.990Z,57.06
2019-05-30T09:47:09.435Z,57.17
2019-05-30T09:49:37.540Z,57.03
2019-05-30T09:52:05.593Z,56.92
2019-05-30T09:54:33.665Z,57.11
2019-05-30T09:57:01.985Z,57.19
2019-05-30T09:59:30.042Z,56.88
2019-05-30T10:01:58.098Z,56.96
2019-05-30T10:04:26.078Z,57.34
2019-05-30T10:06:54.147Z,57.11
2019-05-30T10:09:22.171Z,57.06
2019-05-30T10:11:51.327Z,56.76
2019-05-30T10:14:19.453Z,56.97
2019-05-30T10:16:52.930Z,56.98
2019-05-30T10:19:17.309Z,56.91
2019-05-30T10:21:45.973Z,57.15
2019-05-30T10:24:15.157Z,57.20
2019-05-30T10:26:43.182Z,57.31
2019-05-30T10:29:11.195Z,57.78
2019-05-30T10:31:39.190Z,57.26
2019-05-30T10:34:07.227Z,57.22
2019-05-30T10:36:43.921Z,57.23
2019-05-30T10:39:05.340Z,57.08
2019-05-30T10:41:33.371Z,57.18
2019-05-30T10:44:01.628Z,57.15
2019-05-30T10:46:29.675Z,57.58
2019-05-30T10:48:57.831Z,57.51
2019-05-30T10:51:25.829Z,57.32
2019-05-30T10:53:54.096Z,57.25
2019-05-30T10:56:22.252Z,57.44
2019-05-30T10:58:50.770Z,57.55
2019-05-30T11:01:18.979Z,59.31
2019-05-30T11:03:48.764Z,58.71
2019-05-30T11:06:16.871Z,58.30
2019-05-30T11:08:46.193Z,58.24
2019-05-30T11:11:14.967Z,58.25
2019-05-30T11:13:43.100Z,58.27
2019-05-30T11:16:11.122Z,57.97
2019-05-30T11:18:39.259Z,58.42
2019-05-30T11:21:07.316Z,58.08
2019-05-30T11:23:35.478Z,57.95
2019-05-30T11:26:03.624Z,58.10
2019-05-30T11:28:31.629Z,57.88
2019-05-30T11:31:04.022Z,57.94
2019-05-30T11:33:29.565Z,57.95
2019-05-30T11:35:57.627Z,57.70
2019-05-30T11:38:25.683Z,57.76
2019-05-30T11:40:53.958Z,57.49
2019-05-30T11:43:24.387Z,57.80
2019-05-30T11:45:53.480Z,57.83
2019-05-30T11:48:21.708Z,57.62
2019-05-30T11:51:20.782Z,57.74
2019-05-30T11:59:38.400Z,58.13
2019-05-30T12:02:06.577Z,57.94
2019-05-30T12:04:34.665Z,58.03
2019-05-30T12:07:02.681Z,58.10
2019-05-30T12:09:30.685Z,60.41
2019-05-30T12:11:59.221Z,61.14
2019-05-30T12:17:21.891Z,62.31
2019-05-30T12:19:51.301Z,62.65
2019-05-30T12:22:19.595Z,62.75
2019-05-30T12:24:48.224Z,62.85
2019-05-30T12:27:17.478Z,62.63
2019-05-30T12:29:45.740Z,62.79
2019-05-30T12:32:13.832Z,62.93
2019-05-30T12:34:42.156Z,63.06
2019-05-30T12:37:11.271Z,62.65
2019-05-30T12:39:39.309Z,61.79
2019-05-30T12:42:07.407Z,61.66
2019-05-30T12:44:35.453Z,61.18
2019-05-30T12:47:03.590Z,60.77
2019-05-30T12:49:31.645Z,60.72
2019-05-30T12:52:00.596Z,61.17
2019-05-30T12:54:34.567Z,60.71
2019-05-30T12:57:02.902Z,60.27
2019-05-30T12:59:31.350Z,60.26
2019-05-30T13:01:59.377Z,60.27
2019-05-30T13:04:27.451Z,60.04
2019-05-30T13:06:56.419Z,60.10
2019-05-30T13:09:25.671Z,60.61
2019-05-30T13:11:54.277Z,60.05
2019-05-30T13:14:22.507Z,59.81
2019-05-30T13:16:50.569Z,60.42
2019-05-30T13:19:18.689Z,60.47
2019-05-30T13:21:46.754Z,61.58
2019-05-30T13:24:15.188Z,61.39
2019-05-30T13:26:43.268Z,61.11
2019-05-30T13:29:11.317Z,60.98
2019-05-30T13:31:39.419Z,60.51
2019-05-30T13:34:07.593Z,60.44
2019-05-30T13:36:35.638Z,60.48
2019-05-30T13:39:05.256Z,60.07
2019-05-30T13:41:37.991Z,59.86
2019-05-30T13:44:08.008Z,60.39
2019-05-30T13:46:36.214Z,60.60
2019-05-30T13:49:04.734Z,60.32
2019-05-30T13:51:33.024Z,60.30
2019-05-30T13:56:55.834Z,60.07
2019-05-30T13:59:23.877Z,59.83
2019-05-30T14:01:54.333Z,59.96
2019-05-30T14:04:22.452Z,59.85
2019-05-30T14:06:50.649Z,59.79
2019-05-30T14:09:18.697Z,59.95
2019-05-30T14:11:46.892Z,59.62
2019-05-30T14:14:15.043Z,60.25
2019-05-30T14:16:43.064Z,61.52
2019-05-30T14:19:12.931Z,61.79
2019-05-30T14:21:40.851Z,61.10
2019-05-30T14:24:09.444Z,60.83
2019-05-30T14:26:37.494Z,60.79
2019-05-30T14:29:05.742Z,60.71
2019-05-30T14:31:33.809Z,60.33
2019-05-30T14:34:02.131Z,60.34
2019-05-30T14:36:30.315Z,60.12
2019-05-30T14:38:59.151Z,60.03
2019-05-30T14:41:27.364Z,59.74
2019-05-30T14:43:55.355Z,59.77
2019-05-30T14:46:23.416Z,59.64
2019-05-30T14:48:51.483Z,59.69
2019-05-30T14:51:19.562Z,59.39
2019-05-30T14:53:47.591Z,59.59
2019-05-30T14:56:15.681Z,59.37
2019-05-30T14:58:43.786Z,59.23
2019-05-30T15:01:13.252Z,59.24
2019-05-30T15:03:41.468Z,59.12
2019-05-30T15:06:12.815Z,58.83
2019-05-30T15:08:39.400Z,58.83
2019-05-30T15:11:07.606Z,58.76
2019-05-30T15:13:35.756Z,58.70
2019-05-30T15:16:04.746Z,58.67
2019-05-30T15:18:32.888Z,58.48
2019-05-30T15:21:01.074Z,58.56
2019-05-30T15:23:29.140Z,58.42
2019-05-30T15:25:57.184Z,58.17
2019-05-30T15:28:25.245Z,58.29
2019-05-30T15:30:53.288Z,58.13
2019-05-30T15:33:21.333Z,58.01
2019-05-30T15:35:49.442Z,58.07
2019-05-30T15:38:17.542Z,58.02
2019-05-30T15:40:45.608Z,57.93
2019-05-30T15:43:13.677Z,57.77
2019-05-30T15:45:41.698Z,57.52
2019-05-30T15:48:10.313Z,57.72
2019-05-30T15:50:38.535Z,57.51
2019-05-30T15:53:06.637Z,57.50
2019-05-30T15:55:34.648Z,57.49
2019-05-30T15:58:02.695Z,57.55
2019-05-30T16:00:30.760Z,57.92
2019-05-30T16:02:58.897Z,59.00
2019-05-30T16:05:27.087Z,58.81
2019-05-30T16:08:07.307Z,58.30
2019-05-30T16:10:36.829Z,58.12
2019-05-30T16:13:05.210Z,57.96
2019-05-30T16:15:33.416Z,57.69
2019-05-30T16:18:01.529Z,57.96
2019-05-30T16:20:29.632Z,57.67
2019-05-30T16:22:57.689Z,57.60
2019-05-30T16:25:25.917Z,57.57
2019-05-30T16:27:54.208Z,57.43
2019-05-30T16:30:25.240Z,57.46
2019-05-30T16:32:52.066Z,57.45
2019-05-30T16:35:20.281Z,57.42
2019-05-30T16:37:48.375Z,57.49
2019-05-30T16:40:16.521Z,57.39
2019-05-30T16:42:44.526Z,57.40
2019-05-30T16:45:12.693Z,57.43
2019-05-30T16:47:41.014Z,57.31
2019-05-30T16:50:09.089Z,57.39
2019-05-30T16:52:37.124Z,57.37
2019-05-30T16:55:05.167Z,57.34
2019-05-30T16:57:33.200Z,57.42
2019-05-30T17:00:01.261Z,57.48
2019-05-30T17:02:29.333Z,57.33
2019-05-30T17:04:57.746Z,57.48
2019-05-30T17:07:25.763Z,57.41
2019-05-30T17:09:53.788Z,57.48
2019-05-30T17:12:21.914Z,57.48
2019-05-30T17:14:50.098Z,57.37
2019-05-30T17:17:18.234Z,57.21
2019-05-30T17:19:46.427Z,57.33
2019-05-30T17:22:14.581Z,57.61
2019-05-30T17:24:42.979Z,57.86
2019-05-30T17:27:11.110Z,57.79
2019-05-30T17:29:39.251Z,57.83
2019-05-30T17:32:07.355Z,58.21
2019-05-30T17:34:35.477Z,58.66
2019-05-30T17:37:03.496Z,58.82
2019-05-30T17:39:31.517Z,58.63
2019-05-30T17:41:59.589Z,58.71
2019-05-30T17:44:27.600Z,58.61
2019-05-30T17:46:55.749Z,59.00
2019-05-30T17:49:23.792Z,59.17
2019-05-30T17:51:51.842Z,59.14
2019-05-30T17:54:19.880Z,59.35
2019-05-30T17:56:47.922Z,59.24
2019-05-30T17:59:16.091Z,59.33
2019-05-30T18:01:44.237Z,59.12
2019-05-30T18:04:12.287Z,59.14
2019-05-30T18:06:40.332Z,58.95
2019-05-30T18:09:08.330Z,58.89
2019-05-30T18:11:36.332Z,58.76
2019-05-30T18:14:04.400Z,58.57
2019-05-30T18:16:32.465Z,58.64
2019-05-30T18:19:00.511Z,58.57
2019-05-30T18:21:29.547Z,58.63
2019-05-30T18:23:57.705Z,58.51
2019-05-30T18:26:25.756Z,58.42
2019-05-30T18:28:53.791Z,58.47
2019-05-30T18:31:21.990Z,58.52
2019-05-30T18:33:50.047Z,58.63
2019-05-30T18:36:18.190Z,58.46
2019-05-30T18:38:46.277Z,58.38
2019-05-30T18:41:16.553Z,58.43
2019-05-30T18:43:44.132Z,58.48
2019-05-30T18:46:12.256Z,58.35
2019-05-30T18:48:40.275Z,58.24
2019-05-30T18:51:08.386Z,58.26
2019-05-30T18:53:36.715Z,58.16
2019-05-30T18:56:04.919Z,58.07
2019-05-30T18:58:33.256Z,58.10
2019-05-30T19:01:01.474Z,58.07
2019-05-30T19:03:30.709Z,58.10
2019-05-30T19:05:59.405Z,58.06
2019-05-30T19:08:27.866Z,58.11
2019-05-30T19:10:56.031Z,58.14
2019-05-30T19:13:25.123Z,58.07
2019-05-30T19:15:53.187Z,57.95
2019-05-30T19:18:21.251Z,57.83
2019-05-30T19:20:49.311Z,57.82
2019-05-30T19:23:17.314Z,57.71
2019-05-30T19:25:45.374Z,57.72
2019-05-30T19:28:13.389Z,57.47
2019-05-30T19:30:41.443Z,57.54
2019-05-30T19:33:09.560Z,57.41
2019-05-30T19:35:37.638Z,57.57
2019-05-30T19:38:05.708Z,57.15
2019-05-30T19:40:33.763Z,57.05
2019-05-30T19:43:01.845Z,57.02
2019-05-30T19:45:30.034Z,56.92
2019-05-30T19:47:58.167Z,57.11
2019-05-30T19:50:26.169Z,57.23
2019-05-30T19:52:54.193Z,57.06
2019-05-30T19:55:22.549Z,56.96
2019-05-30T19:57:50.571Z,57.12
2019-05-30T20:00:19.028Z,57.06
2019-05-30T20:02:47.100Z,57.07
2019-05-30T20:05:15.325Z,57.17
2019-05-30T20:07:43.402Z,57.01
2019-05-30T20:10:11.760Z,56.84
2019-05-30T20:12:41.006Z,56.86
2019-05-30T20:15:09.213Z,56.73
2019-05-30T20:17:37.572Z,56.70
2019-05-30T20:20:05.789Z,56.76
2019-05-30T20:22:34.157Z,56.72
2019-05-30T20:25:02.251Z,56.65
2019-05-30T20:27:32.596Z,56.70
2019-05-30T20:30:00.852Z,56.79
2019-05-30T20:32:29.007Z,56.67
2019-05-30T20:34:57.300Z,56.64
2019-05-30T20:37:25.373Z,56.54
2019-05-30T20:39:53.421Z,56.50
2019-05-30T20:42:21.458Z,56.49
2019-05-30T20:44:49.621Z,56.44
2019-05-30T20:47:17.745Z,56.37
2019-05-30T20:49:47.440Z,56.42
2019-05-30T20:52:15.657Z,56.39
2019-05-30T20:54:44.054Z,56.43
2019-05-30T20:57:12.161Z,56.54
2019-05-30T20:59:40.621Z,56.45
2019-05-30T21:02:08.724Z,56.41
2019-05-30T21:04:36.960Z,56.42
2019-05-30T21:07:05.028Z,56.34
2019-05-30T21:09:33.132Z,56.24
2019-05-30T21:12:01.889Z,56.19
2019-05-30T21:14:30.003Z,56.13
2019-05-30T21:16:58.464Z,56.11
2019-05-30T21:19:26.558Z,56.03
2019-05-30T21:21:54.861Z,56.06
2019-05-30T21:24:22.999Z,56.01
2019-05-30T21:26:51.162Z,55.92
2019-05-30T21:29:19.250Z,55.93
2019-05-30T21:31:47.715Z,55.95
2019-05-30T21:34:15.736Z,55.92
2019-05-30T21:36:44.429Z,55.87
2019-05-30T21:39:16.527Z,55.75
2019-05-30T21:41:44.682Z,55.75
2019-05-30T21:44:12.709Z,55.78
2019-05-30T21:46:40.769Z,55.78
2019-05-30T21:49:08.851Z,55.80
2019-05-30T21:51:36.895Z,55.76
2019-05-30T21:54:04.936Z,55.90
2019-05-30T21:56:33.011Z,56.01
2019-05-30T21:59:01.106Z,55.89
2019-05-30T22:01:29.165Z,55.75
2019-05-30T22:03:57.341Z,55.94
2019-05-30T22:06:25.507Z,56.01
2019-05-30T22:08:53.748Z,55.99
2019-05-30T22:11:22.610Z,56.02
2019-05-30T22:13:51.917Z,55.97
2019-05-30T22:16:20.591Z,55.99
2019-05-30T22:18:49.999Z,56.09
2019-05-30T22:21:18.236Z,56.13
2019-05-30T22:23:46.315Z,56.10
2019-05-30T22:26:14.483Z,56.01
2019-05-30T22:28:44.350Z,56.02
2019-05-30T22:31:12.703Z,56.03
2019-05-30T22:33:42.636Z,55.95
2019-05-30T22:36:10.856Z,55.97
2019-05-30T22:38:38.920Z,56.03
2019-05-30T22:41:07.024Z,56.11
2019-05-30T22:43:35.149Z,56.23
2019-05-30T22:46:03.988Z,56.32
2019-05-30T22:48:32.077Z,56.28
2019-05-30T22:51:00.093Z,56.45
2019-05-30T22:53:28.134Z,56.39
2019-05-30T22:55:57.370Z,56.40
2019-05-30T22:58:25.490Z,56.26
2019-05-30T23:00:54.166Z,56.33
2019-05-30T23:03:22.321Z,56.36
2019-05-30T23:05:51.521Z,56.26
2019-05-30T23:08:19.607Z,56.24
2019-05-30T23:10:47.718Z,56.25
2019-05-30T23:13:15.814Z,56.22
2019-05-30T23:15:43.874Z,56.29
2019-05-30T23:18:12.297Z,56.30
2019-05-30T23:20:40.387Z,56.25
2019-05-30T23:23:08.597Z,56.23
2019-05-30T23:25:36.983Z,56.40
2019-05-30T23:28:05.101Z,56.41
2019-05-30T23:30:33.521Z,56.42
2019-05-30T23:33:01.679Z,56.29
2019-05-30T23:35:29.918Z,56.27
2019-05-30T23:37:58.824Z,56.40
2019-05-30T23:40:27.147Z,56.30
2019-05-30T23:42:55.247Z,56.33
2019-05-30T23:45:23.278Z,56.34
2019-05-30T23:47:51.706Z,56.40
2019-05-30T23:50:19.987Z,56.36
2019-05-30T23:52:50.052Z,56.38
2019-05-30T23:55:21.264Z,56.46
2019-05-30T23:57:52.426Z,56.45
